createdAt,value
2022-10-15T00:01:45.999Z,12.40
2022-10-15T00:04:14.500Z,12.43
2022-10-15T00:06:42.557Z,12.46
2022-10-15T00:09:11.297Z,12.55
2022-10-15T00:11:40.867Z,12.67
2022-10-15T00:14:08.865Z,12.78
2022-10-15T00:16:37.606Z,12.69
2022-10-15T00:19:06.311Z,12.64
2022-10-15T00:21:34.125Z,12.63
2022-10-15T00:24:02.006Z,12.58
2022-10-15T00:26:30.576Z,12.66
2022-10-15T00:29:02.561Z,12.77
2022-10-15T00:31:32.200Z,12.93
2022-10-15T00:34:03.203Z,13.03
2022-10-15T00:36:34.280Z,13.11
2022-10-15T00:39:04.102Z,13.01
2022-10-15T00:41:40.513Z,12.94
2022-10-15T00:44:28.821Z,12.90
2022-10-15T00:47:14.644Z,12.92
2022-10-15T00:49:48.912Z,13.08
2022-10-15T00:52:24.109Z,13.25
2022-10-15T00:55:28.595Z,13.19
2022-10-15T00:58:02.073Z,13.23
2022-10-15T01:00:33.498Z,13.23
2022-10-15T01:03:02.880Z,13.21
2022-10-15T01:05:32.030Z,13.18
2022-10-15T01:08:00.203Z,13.19
2022-10-15T01:10:36.895Z,13.29
2022-10-15T01:13:18.576Z,13.25
2022-10-15T01:15:59.992Z,13.22
2022-10-15T01:18:34.643Z,13.11
2022-10-15T01:21:26.156Z,13.18
2022-10-15T01:24:13.143Z,13.11
2022-10-15T01:27:19.407Z,13.10
2022-10-15T01:30:02.742Z,13.02
2022-10-15T01:32:49.839Z,13.10
2022-10-15T01:35:46.440Z,12.92
2022-10-15T01:38:29.699Z,12.89
2022-10-15T01:41:03.706Z,12.95
2022-10-15T01:44:00.779Z,13.05
2022-10-15T01:46:47.838Z,13.16
2022-10-15T01:49:26.473Z,13.31
2022-10-15T01:51:56.049Z,13.37
2022-10-15T01:54:27.704Z,13.31
2022-10-15T01:56:58.904Z,13.35
2022-10-15T01:59:30.391Z,13.33
2022-10-15T02:01:59.101Z,13.37
2022-10-15T02:04:30.390Z,13.28
2022-10-15T02:07:07.213Z,13.16
2022-10-15T02:09:54.762Z,13.08
2022-10-15T02:12:44.581Z,13.15
2022-10-15T02:15:41.393Z,13.36
2022-10-15T02:18:09.336Z,13.54
2022-10-15T02:21:27.239Z,13.57
2022-10-15T02:24:11.652Z,13.63
2022-10-15T02:26:42.435Z,13.72
2022-10-15T02:29:13.882Z,13.84
2022-10-15T02:31:44.193Z,13.92
2022-10-15T02:34:17.468Z,14.02
2022-10-15T02:36:47.161Z,14.07
2022-10-15T02:39:20.772Z,14.20
2022-10-15T02:41:51.206Z,14.26
2022-10-15T02:44:19.611Z,14.33
2022-10-15T02:46:48.096Z,14.37
2022-10-15T02:49:16.465Z,14.35
2022-10-15T02:51:44.729Z,14.38
2022-10-15T02:54:16.114Z,14.33
2022-10-15T02:56:44.313Z,14.22
2022-10-15T02:59:12.436Z,14.20
2022-10-15T03:01:40.611Z,14.29
2022-10-15T03:04:08.641Z,14.30
2022-10-15T03:06:37.709Z,14.28
2022-10-15T03:09:06.164Z,14.20
2022-10-15T03:11:34.432Z,14.24
2022-10-15T03:14:03.255Z,14.23
2022-10-15T03:16:32.592Z,14.06
2022-10-15T03:19:00.763Z,14.08
2022-10-15T03:21:31.283Z,14.03
2022-10-15T03:24:05.153Z,13.99
2022-10-15T03:26:33.204Z,13.96
2022-10-15T03:29:02.204Z,14.00
2022-10-15T03:31:36.761Z,14.18
2022-10-15T03:34:05.270Z,14.20
2022-10-15T03:36:33.677Z,14.25
2022-10-15T03:39:01.736Z,14.18
2022-10-15T03:41:29.940Z,14.11
2022-10-15T03:44:06.639Z,14.17
2022-10-15T03:46:35.744Z,14.39
2022-10-15T03:49:04.388Z,14.44
2022-10-15T03:51:33.261Z,14.49
2022-10-15T03:54:06.448Z,14.57
2022-10-15T03:56:43.455Z,14.64
2022-10-15T03:59:39.350Z,14.66
2022-10-15T04:02:07.754Z,14.54
2022-10-15T04:04:36.189Z,14.58
2022-10-15T04:07:04.789Z,14.61
2022-10-15T04:09:33.486Z,14.50
2022-10-15T04:12:20.686Z,14.67
2022-10-15T04:14:49.767Z,14.80
2022-10-15T04:17:19.289Z,14.92
2022-10-15T04:19:47.686Z,15.06
2022-10-15T04:22:16.699Z,15.09
2022-10-15T04:24:49.090Z,15.07
2022-10-15T04:27:26.711Z,15.21
2022-10-15T04:30:00.344Z,15.21
2022-10-15T04:32:28.561Z,15.32
2022-10-15T04:34:57.426Z,15.34
2022-10-15T04:37:42.896Z,15.38
2022-10-15T04:40:13.821Z,15.35
2022-10-15T04:42:44.846Z,15.23
2022-10-15T04:45:16.218Z,15.30
2022-10-15T04:47:46.238Z,15.52
2022-10-15T04:50:16.774Z,15.49
2022-10-15T04:53:16.877Z,15.42
2022-10-15T04:55:46.089Z,15.45
2022-10-15T04:58:16.346Z,15.58
2022-10-15T05:00:48.071Z,15.64
2022-10-15T05:03:34.935Z,15.74
2022-10-15T05:06:09.200Z,15.84
2022-10-15T05:08:42.078Z,15.83
2022-10-15T05:11:31.545Z,15.92
2022-10-15T05:13:59.657Z,15.95
2022-10-15T05:16:30.370Z,15.94
2022-10-15T05:19:04.099Z,16.02
2022-10-15T05:21:34.063Z,15.86
2022-10-15T05:24:05.655Z,15.88
2022-10-15T05:26:52.316Z,15.59
2022-10-15T05:29:23.241Z,15.55
2022-10-15T05:31:54.454Z,15.58
2022-10-15T05:34:27.385Z,15.59
2022-10-15T05:37:02.387Z,15.63
2022-10-15T05:39:31.051Z,15.73
2022-10-15T05:42:00.807Z,15.70
2022-10-15T05:44:45.327Z,15.79
2022-10-15T05:47:15.529Z,15.94
2022-10-15T05:49:43.894Z,15.99
2022-10-15T05:52:25.428Z,15.95
2022-10-15T05:55:08.314Z,16.09
2022-10-15T05:57:37.022Z,16.23
2022-10-15T06:00:09.229Z,16.34
2022-10-15T06:02:41.588Z,16.34
2022-10-15T06:05:10.069Z,16.28
2022-10-15T06:07:41.988Z,16.21
2022-10-15T06:10:11.984Z,16.08
2022-10-15T06:12:40.400Z,15.98
2022-10-15T06:15:13.601Z,16.05
2022-10-15T06:17:44.307Z,16.01
2022-10-15T06:20:13.197Z,16.14
2022-10-15T06:22:44.376Z,16.15
2022-10-15T06:25:12.369Z,16.16
2022-10-15T06:27:40.647Z,16.33
2022-10-15T06:30:09.459Z,16.40
2022-10-15T06:32:37.492Z,16.50
2022-10-15T06:35:06.508Z,16.60
2022-10-15T06:37:34.923Z,16.78
2022-10-15T06:40:03.259Z,16.88
2022-10-15T06:42:32.612Z,16.79
2022-10-15T06:45:00.912Z,16.45
2022-10-15T06:47:28.988Z,16.59
2022-10-15T06:49:57.070Z,16.68
2022-10-15T06:52:25.315Z,16.76
2022-10-15T06:54:53.279Z,17.07
2022-10-15T06:57:22.931Z,17.24
2022-10-15T06:59:51.615Z,17.45
2022-10-15T07:02:20.563Z,17.49
2022-10-15T07:04:49.459Z,17.42
2022-10-15T07:07:19.149Z,17.39
2022-10-15T07:09:47.758Z,17.35
2022-10-15T07:12:16.633Z,17.14
2022-10-15T07:14:45.455Z,17.16
2022-10-15T07:17:14.741Z,17.20
2022-10-15T07:19:44.258Z,17.18
2022-10-15T07:22:13.231Z,17.12
2022-10-15T07:24:42.220Z,17.09
2022-10-15T07:27:18.671Z,17.17
2022-10-15T07:29:49.859Z,17.17
2022-10-15T07:32:18.911Z,17.20
2022-10-15T07:34:47.343Z,17.14
2022-10-15T07:37:15.659Z,17.10
2022-10-15T07:39:44.030Z,17.33
2022-10-15T07:44:42.013Z,17.19
2022-10-15T07:47:13.167Z,17.30
2022-10-15T07:49:42.656Z,17.33
2022-10-15T07:52:11.789Z,17.46
2022-10-15T07:54:40.546Z,17.63
2022-10-15T07:57:14.938Z,17.74
2022-10-15T07:59:43.442Z,17.61
2022-10-15T08:02:16.878Z,17.93
2022-10-15T08:04:45.098Z,18.09
2022-10-15T08:07:13.781Z,17.95
2022-10-15T08:09:41.852Z,18.01
2022-10-15T08:12:10.831Z,18.27
2022-10-15T08:14:39.155Z,18.57
2022-10-15T08:17:07.791Z,18.71
2022-10-15T08:19:36.249Z,18.69
2022-10-15T08:22:06.041Z,18.66
2022-10-15T08:24:34.442Z,18.68
2022-10-15T08:27:02.790Z,18.83
2022-10-15T08:29:39.324Z,18.74
2022-10-15T08:32:09.915Z,18.88
2022-10-15T08:34:38.729Z,18.69
2022-10-15T08:37:07.610Z,18.78
2022-10-15T08:39:44.668Z,18.66
2022-10-15T08:42:38.271Z,18.83
2022-10-15T08:45:18.105Z,19.10
2022-10-15T08:47:52.070Z,18.94
2022-10-15T08:50:24.852Z,19.21
2022-10-15T08:52:56.814Z,19.36
2022-10-15T08:55:29.650Z,19.47
2022-10-15T08:58:30.829Z,19.42
2022-10-15T09:01:00.348Z,19.72
2022-10-15T09:03:51.792Z,19.69
2022-10-15T09:06:32.803Z,19.63
2022-10-15T09:09:14.148Z,19.95
2022-10-15T09:12:18.193Z,19.85
2022-10-15T09:14:53.800Z,19.88
2022-10-15T09:17:27.469Z,19.53
2022-10-15T09:19:58.729Z,19.65
2022-10-15T09:22:31.650Z,19.84
2022-10-15T09:25:14.232Z,19.91
2022-10-15T09:27:48.955Z,20.14
2022-10-15T09:30:37.472Z,19.95
2022-10-15T09:33:08.851Z,19.97
2022-10-15T09:35:44.424Z,20.29
2022-10-15T09:38:30.111Z,20.34
2022-10-15T09:41:43.391Z,20.80
2022-10-15T09:44:17.426Z,20.80
2022-10-15T09:46:51.318Z,20.82
2022-10-15T09:49:33.857Z,20.82
2022-10-15T09:52:13.508Z,20.48
2022-10-15T09:55:01.261Z,20.42
2022-10-15T09:57:33.407Z,20.50
2022-10-15T10:00:07.328Z,20.73
2022-10-15T10:02:44.290Z,20.68
2022-10-15T10:05:27.125Z,20.56
2022-10-15T10:08:23.513Z,20.59
2022-10-15T10:10:57.252Z,20.72
2022-10-15T10:13:33.480Z,20.71
2022-10-15T10:16:13.982Z,20.79
2022-10-15T10:18:51.295Z,20.96
2022-10-15T10:21:31.924Z,20.98
2022-10-15T10:24:31.916Z,21.13
2022-10-15T10:29:52.426Z,21.30
2022-10-15T10:32:29.383Z,21.33
2022-10-15T10:35:02.175Z,20.98
2022-10-15T10:37:42.680Z,20.94
2022-10-15T10:40:26.971Z,21.41
2022-10-15T10:43:19.397Z,21.43
2022-10-15T10:45:57.940Z,21.48
2022-10-15T10:48:42.743Z,21.15
2022-10-15T10:51:32.068Z,21.11
2022-10-15T10:54:05.873Z,20.89
2022-10-15T10:56:42.586Z,20.81
2022-10-15T10:59:31.395Z,20.52
2022-10-15T11:02:01.740Z,20.63
2022-10-15T11:04:34.602Z,20.75
2022-10-15T11:07:28.393Z,20.95
2022-10-15T11:10:09.670Z,20.91
2022-10-15T11:12:50.730Z,21.04
2022-10-15T11:15:39.559Z,21.07
2022-10-15T11:18:19.506Z,21.35
2022-10-15T11:21:07.038Z,21.48
2022-10-15T11:24:02.956Z,21.42
2022-10-15T11:27:12.015Z,21.53
2022-10-15T11:29:56.615Z,22.03
2022-10-15T11:33:13.488Z,22.29
2022-10-15T11:36:23.544Z,22.30
2022-10-15T11:39:01.005Z,22.13
2022-10-15T11:41:37.668Z,22.19
2022-10-15T11:44:26.750Z,22.32
2022-10-15T11:47:01.991Z,22.45
2022-10-15T11:49:46.620Z,22.75
2022-10-15T11:52:36.543Z,22.84
2022-10-15T11:55:13.059Z,22.76
2022-10-15T11:57:45.124Z,22.72
2022-10-15T12:00:20.482Z,22.75
2022-10-15T12:02:51.787Z,22.73
2022-10-15T12:05:31.995Z,22.93
2022-10-15T12:08:01.949Z,22.58
2022-10-15T12:10:47.464Z,22.46
2022-10-15T12:13:39.968Z,22.56
2022-10-15T12:16:37.504Z,22.41
2022-10-15T12:19:22.735Z,22.29
2022-10-15T12:22:06.993Z,22.14
2022-10-15T12:24:43.131Z,22.22
2022-10-15T12:27:23.502Z,22.48
2022-10-15T12:30:05.291Z,22.27
2022-10-15T12:32:40.148Z,22.11
2022-10-15T12:35:14.811Z,22.15
2022-10-15T12:37:49.946Z,22.17
2022-10-15T12:40:21.788Z,22.21
2022-10-15T12:42:54.101Z,22.34
2022-10-15T12:45:26.113Z,22.60
2022-10-15T12:47:54.525Z,22.68
2022-10-15T12:50:28.370Z,22.59
2022-10-15T12:53:06.750Z,22.52
2022-10-15T12:55:38.665Z,22.59
2022-10-15T12:58:34.446Z,23.20
2022-10-15T13:01:27.429Z,23.27
2022-10-15T13:04:02.283Z,23.38
2022-10-15T13:06:37.382Z,23.32
2022-10-15T13:09:17.477Z,23.30
2022-10-15T13:14:32.623Z,22.89
2022-10-15T13:17:05.385Z,22.74
2022-10-15T13:19:41.928Z,22.75
2022-10-15T13:22:24.113Z,22.78
2022-10-15T13:24:54.166Z,22.77
2022-10-15T13:27:29.926Z,22.60
2022-10-15T13:30:01.655Z,22.75
2022-10-15T13:32:37.413Z,22.65
2022-10-15T13:35:23.109Z,22.42
2022-10-15T13:37:52.340Z,22.59
2022-10-15T13:40:23.692Z,22.86
2022-10-15T13:43:07.115Z,22.84
2022-10-15T13:45:38.013Z,23.00
2022-10-15T13:48:16.374Z,22.74
2022-10-15T13:50:49.140Z,22.64
2022-10-15T13:53:30.625Z,22.60
2022-10-15T13:56:04.713Z,22.66
2022-10-15T13:58:35.264Z,22.59
2022-10-15T14:01:07.683Z,22.48
2022-10-15T14:03:40.249Z,22.43
2022-10-15T14:06:28.682Z,22.59
2022-10-15T14:09:02.200Z,22.85
2022-10-15T14:11:31.353Z,23.05
2022-10-15T14:14:02.318Z,23.23
2022-10-15T14:16:48.253Z,23.14
2022-10-15T14:19:22.753Z,23.12
2022-10-15T14:21:52.868Z,22.53
2022-10-15T14:24:24.112Z,22.58
2022-10-15T14:26:53.650Z,22.63
2022-10-15T14:29:21.926Z,22.66
2022-10-15T14:31:50.914Z,22.62
2022-10-15T14:34:32.717Z,22.49
2022-10-15T14:37:24.449Z,22.73
2022-10-15T14:40:14.442Z,22.68
2022-10-15T14:43:06.899Z,22.65
2022-10-15T14:45:44.143Z,22.55
2022-10-15T14:48:24.088Z,22.65
2022-10-15T14:50:53.613Z,22.59
2022-10-15T14:53:28.295Z,22.34
2022-10-15T14:56:03.286Z,22.47
2022-10-15T14:58:31.824Z,22.53
2022-10-15T15:01:06.985Z,22.54
2022-10-15T15:03:41.712Z,22.63
2022-10-15T15:06:10.458Z,22.41
2022-10-15T15:08:39.251Z,22.27
2022-10-15T15:11:12.814Z,21.96
2022-10-15T15:13:44.785Z,21.84
2022-10-15T15:16:15.301Z,21.43
2022-10-15T15:18:44.133Z,21.36
2022-10-15T15:21:19.896Z,21.18
2022-10-15T15:23:51.912Z,20.91
2022-10-15T15:26:21.290Z,20.96
2022-10-15T15:29:00.212Z,20.94
2022-10-15T15:31:33.016Z,20.93
2022-10-15T15:34:02.037Z,20.76
2022-10-15T15:36:31.259Z,20.78
2022-10-15T15:39:00.255Z,20.81
2022-10-15T15:41:29.245Z,20.73
2022-10-15T15:43:59.192Z,20.48
2022-10-15T15:46:27.879Z,20.19
2022-10-15T15:49:00.711Z,20.09
2022-10-15T15:51:32.802Z,20.16
2022-10-15T15:54:07.054Z,20.07
2022-10-15T15:56:35.692Z,20.01
2022-10-15T15:59:07.186Z,20.21
2022-10-15T16:01:36.189Z,20.30
2022-10-15T16:04:05.875Z,20.45
2022-10-15T16:06:36.632Z,20.63
2022-10-15T16:09:06.789Z,20.72
2022-10-15T16:11:37.919Z,20.82
2022-10-15T16:14:09.321Z,20.86
2022-10-15T16:16:39.917Z,20.60
2022-10-15T16:19:13.199Z,20.70
2022-10-15T16:21:44.239Z,20.61
2022-10-15T16:24:13.505Z,20.66
2022-10-15T16:26:41.637Z,20.65
2022-10-15T16:29:10.551Z,20.62
2022-10-15T16:31:40.014Z,20.53
2022-10-15T16:34:10.689Z,20.30
2022-10-15T16:36:41.857Z,20.40
2022-10-15T16:39:10.945Z,20.37
2022-10-15T16:41:42.949Z,20.27
2022-10-15T16:44:11.752Z,20.27
2022-10-15T16:46:40.794Z,19.95
2022-10-15T16:49:09.068Z,19.88
2022-10-15T16:51:41.303Z,20.00
2022-10-15T16:54:17.300Z,20.07
2022-10-15T16:56:49.157Z,20.18
2022-10-15T16:59:21.597Z,19.94
2022-10-15T17:01:50.332Z,19.94
2022-10-15T17:04:19.614Z,20.16
2022-10-15T17:06:48.333Z,20.05
2022-10-15T17:09:18.723Z,19.86
2022-10-15T17:11:47.900Z,19.82
2022-10-15T17:14:20.156Z,19.99
2022-10-15T17:16:52.011Z,19.94
2022-10-15T17:19:29.018Z,19.97
2022-10-15T17:22:00.310Z,20.10
2022-10-15T17:24:28.737Z,20.19
2022-10-15T17:26:58.205Z,20.05
2022-10-15T17:29:29.132Z,20.09
2022-10-15T17:32:03.147Z,20.03
2022-10-15T17:34:31.435Z,19.85
2022-10-15T17:37:03.799Z,19.61
2022-10-15T17:39:33.326Z,19.56
2022-10-15T17:42:01.386Z,19.48
2022-10-15T17:44:30.466Z,19.31
2022-10-15T17:46:59.022Z,19.38
2022-10-15T17:49:31.620Z,19.32
2022-10-15T17:52:00.564Z,19.22
2022-10-15T17:54:31.261Z,19.25
2022-10-15T17:56:59.859Z,19.18
2022-10-15T17:59:28.739Z,19.06
2022-10-15T18:01:59.820Z,19.10
2022-10-15T18:04:30.010Z,19.19
2022-10-15T18:06:59.437Z,18.96
2022-10-15T18:09:28.493Z,19.07
2022-10-15T18:12:01.034Z,18.97
2022-10-15T18:14:35.325Z,18.97
2022-10-15T18:17:05.247Z,18.98
2022-10-15T18:19:34.106Z,19.11
2022-10-15T18:22:03.170Z,19.27
2022-10-15T18:24:33.294Z,19.22
2022-10-15T18:27:07.422Z,19.34
2022-10-15T18:29:37.155Z,19.36
2022-10-15T18:32:08.094Z,19.46
2022-10-15T18:34:36.357Z,19.63
2022-10-15T18:37:04.984Z,19.64
2022-10-15T18:39:35.065Z,19.63
2022-10-15T18:42:05.765Z,19.83
2022-10-15T18:44:34.588Z,19.88
2022-10-15T18:47:03.934Z,19.90
2022-10-15T18:49:33.152Z,19.89
2022-10-15T18:52:10.678Z,19.93
2022-10-15T18:54:50.277Z,19.99
2022-10-15T18:57:18.735Z,19.97
2022-10-15T18:59:48.092Z,20.02
2022-10-15T19:02:19.050Z,20.08
2022-10-15T19:04:48.075Z,20.11
2022-10-15T19:07:19.809Z,20.14
2022-10-15T19:09:50.120Z,20.08
2022-10-15T19:12:22.045Z,20.04
2022-10-15T19:14:51.843Z,20.03
2022-10-15T19:17:20.030Z,20.08
2022-10-15T19:19:50.360Z,20.07
2022-10-15T19:22:19.562Z,19.96
2022-10-15T19:24:48.085Z,19.73
2022-10-15T19:27:16.653Z,19.78
2022-10-15T19:29:48.661Z,19.81
2022-10-15T19:32:17.751Z,19.88
2022-10-15T19:34:46.618Z,19.97
2022-10-15T19:37:15.670Z,19.94
2022-10-15T19:39:52.189Z,19.88
2022-10-15T19:42:24.132Z,19.73
2022-10-15T19:44:54.306Z,19.68
2022-10-15T19:47:23.646Z,19.61
2022-10-15T19:49:55.204Z,19.56
2022-10-15T19:52:24.190Z,19.56
2022-10-15T19:54:52.932Z,19.46
2022-10-15T19:57:21.051Z,19.37
2022-10-15T19:59:49.939Z,19.30
2022-10-15T20:02:18.786Z,19.24
2022-10-15T20:04:47.207Z,19.16
2022-10-15T20:07:16.431Z,19.14
2022-10-15T20:09:45.191Z,19.10
2022-10-15T20:12:13.486Z,19.12
2022-10-15T20:14:45.517Z,19.04
2022-10-15T20:17:14.218Z,18.94
2022-10-15T20:19:42.818Z,18.83
2022-10-15T20:22:14.182Z,18.80
2022-10-15T20:24:42.915Z,18.69
2022-10-15T20:27:11.449Z,18.60
2022-10-15T20:29:39.629Z,18.47
2022-10-15T20:32:23.346Z,18.34
2022-10-15T20:35:04.533Z,18.26
2022-10-15T20:37:33.428Z,18.22
2022-10-15T20:40:02.741Z,18.25
2022-10-15T20:42:37.985Z,18.21
2022-10-15T20:45:14.656Z,18.20
2022-10-15T20:47:47.742Z,18.09
2022-10-15T20:50:21.385Z,18.17
2022-10-15T20:52:49.517Z,18.15
2022-10-15T20:55:19.388Z,18.01
2022-10-15T20:57:47.522Z,18.00
2022-10-15T21:00:16.272Z,17.95
2022-10-15T21:02:45.930Z,18.02
2022-10-15T21:05:14.696Z,17.97
2022-10-15T21:07:43.188Z,17.98
2022-10-15T21:10:12.192Z,17.96
2022-10-15T21:12:41.674Z,17.98
2022-10-15T21:15:11.143Z,18.02
2022-10-15T21:17:41.488Z,17.99
2022-10-15T21:20:12.792Z,17.91
2022-10-15T21:22:41.489Z,17.86
2022-10-15T21:25:09.811Z,17.80
2022-10-15T21:27:38.867Z,17.78
2022-10-15T21:30:11.867Z,17.64
2022-10-15T21:32:40.105Z,17.58
2022-10-15T21:35:08.611Z,17.41
2022-10-15T21:37:38.111Z,17.36
2022-10-15T21:40:07.912Z,17.23
2022-10-15T21:42:36.425Z,17.18
2022-10-15T21:45:05.813Z,17.12
2022-10-15T21:47:34.240Z,17.18
2022-10-15T21:50:05.488Z,17.05
2022-10-15T21:52:34.611Z,17.01
2022-10-15T21:55:03.604Z,16.99
2022-10-15T21:57:32.850Z,16.98
2022-10-15T22:00:01.109Z,16.90
2022-10-15T22:02:36.704Z,16.80
2022-10-15T22:05:10.475Z,16.86
2022-10-15T22:07:40.340Z,16.97
2022-10-15T22:10:08.520Z,17.07
2022-10-15T22:12:36.548Z,17.15
2022-10-15T22:15:05.865Z,17.37
2022-10-15T22:17:34.068Z,17.53
2022-10-15T22:20:02.050Z,17.61
2022-10-15T22:22:30.123Z,17.67
2022-10-15T22:24:59.797Z,17.79
2022-10-15T22:27:27.743Z,17.77
2022-10-15T22:29:55.821Z,17.67
2022-10-15T22:32:24.337Z,17.65
2022-10-15T22:34:52.804Z,17.63
2022-10-15T22:37:21.133Z,17.46
2022-10-15T22:39:49.134Z,17.53
2022-10-15T22:42:17.323Z,17.65
2022-10-15T22:44:45.211Z,17.74
2022-10-15T22:47:13.271Z,17.80
2022-10-15T22:49:41.279Z,17.83
2022-10-15T22:52:09.838Z,17.75
2022-10-15T22:54:37.812Z,17.68
2022-10-15T22:57:05.753Z,17.51
2022-10-15T22:59:33.596Z,17.49
2022-10-15T23:02:01.569Z,17.53
2022-10-15T23:04:29.488Z,17.54
2022-10-15T23:06:57.440Z,17.60
2022-10-15T23:09:25.331Z,17.62
2022-10-15T23:11:53.805Z,17.74
2022-10-15T23:14:22.827Z,17.70
2022-10-15T23:16:50.996Z,17.72
2022-10-15T23:19:22.027Z,17.71
2022-10-15T23:21:51.483Z,17.53
2022-10-15T23:24:22.222Z,17.37
2022-10-15T23:26:51.044Z,17.35
2022-10-15T23:29:24.472Z,17.41
2022-10-15T23:31:53.422Z,17.33
2022-10-15T23:34:23.701Z,17.26
2022-10-15T23:36:52.526Z,17.11
2022-10-15T23:39:23.528Z,16.97
2022-10-15T23:41:51.897Z,16.87
2022-10-15T23:44:20.545Z,16.70
2022-10-15T23:46:48.883Z,16.71
2022-10-15T23:49:16.901Z,16.69
2022-10-15T23:51:44.957Z,16.67
2022-10-15T23:54:17.887Z,16.77
2022-10-15T23:56:46.971Z,16.97
2022-10-15T23:59:18.424Z,17.19
